Marcelino Ramos, Brazil
Current Conditions -  °F | °C
As of 10:00 AM on Tuesday 21 Oct 2014 (Local Time) from SBCH Reporting Station
Clear Clear  
Wind Chill: 64°   Ceiling: Unl
Heat Index: 64°   Visibility: 6mi
Dew Point: 55°   Wind: 12mph
Humidity: 73%   Direction: 110°ESE
Pressure: 30.15"   Gusts: NA
Location:  27.46°S, 51.91°W
Report Text: SBCH 211200Z 11010KT CAVOK 18/13 Q1021
Loading
Personal Weather Stations






























Interactive Weather Map
Tropical Storm Tracking
New forecast layout! Learn more

10-Day Weather Forecast

Advertisements
Track Severe Weather on mobile